Neuburg — 5BQJ2 — position and weather

sailwx.info

Track history (hours):
 
Tides and Currents Weather Stations Pressure Air Temp Water Temp Dewpoint Dewpoint Depression Visibility Wind Speed Wind Dir Waves Ship Positions

Neuburg

Last reported at 2018-Apr-25 18:26 UTC. Time now 2018-Apr-26 19:16 UTC.
Position N 41°15' W 008°49'.

Length 142 m; draft 6.9 m.

Type: Ship (hazmat cat A). MMSI: 212740000.

Date/timePositionNaut miles runAvg speedWind from/ knotsBaromVisibWave heightAir tempDewpointWater temp
2018-Apr-25 18:26N 41°15' W 008°49'3 6.6
2018-Apr-25 17:59N 41°12' W 008°47'3 7.1
2018-Apr-25 17:30N 41°10' W 008°43'2 3.8
2018-Apr-25 16:59N 41°12' W 008°41'0 0.0
2018-Apr-25 16:18N 41°12' W 008°41'0 0.0
2018-Apr-25 15:48N 41°12' W 008°41'0 0.0
2018-Apr-25 15:18N 41°12' W 008°41'0 0.0
2018-Apr-25 14:57N 41°12' W 008°41'0 0.0
2018-Apr-25 13:39N 41°12' W 008°41'0 0.0
2018-Apr-25 13:30N 41°12' W 008°41'0 0.0
2018-Apr-25 12:54N 41°12' W 008°41'0 0.0
2018-Apr-25 11:21N 41°12' W 008°41'0 0.0
2018-Apr-25 10:57N 41°12' W 008°41'0 0.0
2018-Apr-25 10:30N 41°12' W 008°41'0 0.0
2018-Apr-25 09:36N 41°12' W 008°41'0 0.0
2018-Apr-25 09:24N 41°12' W 008°41'0 0.0
2018-Apr-25 08:48N 41°12' W 008°41'0 0.0
2018-Apr-25 08:30N 41°12' W 008°41'0 0.0
2018-Apr-25 07:54N 41°12' W 008°41'0 0.0
2018-Apr-25 07:30N 41°12' W 008°41'0 0.0
2018-Apr-25 07:00N 41°12' W 008°41'0 0.0
2018-Apr-25 05:47N 41°12' W 008°41'0 0.4
2018-Apr-25 05:30N 41°12' W 008°41'2 3.6
2018-Apr-25 05:00N 41°10' W 008°42'2 3.8
2018-Apr-25 04:30N 41°08' W 008°44'10611.1
2018-Apr-24 19:01N 39°33' W 009°44'212.0
2018-Apr-24 18:53N 39°32' W 009°45'411.7
2018-Apr-24 18:30N 39°27' W 009°47'611.5
2018-Apr-24 18:00N 39°22' W 009°48'611.8
2018-Apr-24 17:30N 39°16' W 009°48'611.8
2018-Apr-24 17:00N 39°10' W 009°49'611.7
2018-Apr-24 16:30N 39°04' W 009°49'611.8
2018-Apr-24 16:00N 38°58' W 009°50'611.7
2018-Apr-24 15:30N 38°52' W 009°50'612.1
2018-Apr-24 15:00N 38°46' W 009°51'612.3
2018-Apr-24 14:30N 38°40' W 009°50'510.9
2018-Apr-24 14:00N 38°37' W 009°44'612.9
2018-Apr-24 13:30N 38°37' W 009°36'712.9
2018-Apr-24 12:59N 38°36' W 009°28'612.9
2018-Apr-24 12:30N 38°39' W 009°20'713.1
2018-Apr-24 12:00N 38°41' W 009°12'5 9.7
2018-Apr-24 11:30N 38°43' W 009°07'0 0.0
2018-Apr-24 11:00N 38°43' W 009°07'0 0.0
2018-Apr-24 10:30N 38°43' W 009°07'0 0.0
2018-Apr-24 09:57N 38°43' W 009°07'0 0.0
2018-Apr-24 09:21N 38°43' W 009°07'0 0.0
2018-Apr-24 09:00N 38°43' W 009°07'0 0.0
2018-Apr-24 08:24N 38°43' W 009°07'0 0.0
2018-Apr-24 08:00N 38°43' W 009°07'0 0.0
2018-Apr-24 07:30N 38°43' W 009°07'0 0.0
2018-Apr-24 06:48N 38°43' W 009°07'0 0.0
2018-Apr-24 06:12N 38°43' W 009°07'0 0.0
2018-Apr-24 05:57N 38°43' W 009°07'0 0.0
2018-Apr-24 05:30N 38°43' W 009°07'0 0.0
2018-Apr-24 04:54N 38°43' W 009°07'0 0.0
2018-Apr-24 04:30N 38°43' W 009°07'0 0.0
2018-Apr-24 04:00N 38°43' W 009°07'0 0.0
2018-Apr-24 03:18N 38°43' W 009°07'0 0.0
2018-Apr-24 03:00N 38°43' W 009°07'0 0.0
2018-Apr-24 02:30N 38°43' W 009°07'0 0.0
2018-Apr-24 01:57N 38°43' W 009°07'0 0.0
2018-Apr-24 01:21N 38°43' W 009°07'0 0.0
2018-Apr-24 01:00N 38°43' W 009°07'0 0.0
2018-Apr-24 00:24N 38°43' W 009°07'0 0.0
2018-Apr-23 23:27N 38°43' W 009°07'0 0.0
2018-Apr-23 22:30N 38°43' W 009°07'0 0.0
2018-Apr-23 21:18N 38°43' W 009°07'0 0.0
2018-Apr-23 20:45N 38°43' W 009°07'0 0.0
2018-Apr-23 20:30N 38°43' W 009°07'0 0.0
2018-Apr-23 19:57N 38°43' W 009°07'0 0.0
2018-Apr-23 19:30N 38°43' W 009°07'0 0.0
2018-Apr-23 18:48N 38°43' W 009°07'0 0.0
2018-Apr-23 18:29N 38°43' W 009°07'0 0.0
2018-Apr-23 17:59N 38°43' W 009°07'0 0.0
2018-Apr-23 17:17N 38°43' W 009°07'0 0.0
2018-Apr-23 16:56N 38°43' W 009°07'0 0.0
2018-Apr-23 15:59N 38°43' W 009°07'0 0.0
2018-Apr-23 15:29N 38°43' W 009°07'2 4.5
2018-Apr-23 15:00N 38°42' W 009°09'612.0
2018-Apr-23 14:30N 38°41' W 009°16'612.3
2018-Apr-23 14:00N 38°37' W 009°23'612.7
2018-Apr-23 13:30N 38°31' W 009°23'713.4
2018-Apr-23 13:00N 38°24' W 009°23'713.1
2018-Apr-23 12:30N 38°18' W 009°23'613.0
2018-Apr-23 12:00N 38°11' W 009°23'712.9
2018-Apr-23 11:30N 38°05' W 009°23'613.0
2018-Apr-23 11:00N 37°58' W 009°23'713.3
2018-Apr-23 10:30N 37°52' W 009°23'713.4
2018-Apr-23 10:00N 37°45' W 009°23'813.6
2018-Apr-23 09:24N 37°37' W 009°23'513.5
2018-Apr-23 09:00N 37°31' W 009°23'813.5
2018-Apr-23 08:23N 37°23' W 009°22'513.9
2018-Apr-23 08:00N 37°18' W 009°22'713.5
2018-Apr-23 07:30N 37°11' W 009°22'1613.6
2018-Apr-23 06:21N 36°55' W 009°20'513.8
2018-Apr-23 06:00N 36°51' W 009°17'714.2
2018-Apr-23 05:30N 36°46' W 009°11'713.9
2018-Apr-23 05:00N 36°44' W 009°03'714.1
2018-Apr-23 04:30N 36°42' W 008°54'814.6
2018-Apr-23 03:59N 36°39' W 008°45'714.8
2018-Apr-23 03:28N 36°37' W 008°36'14914.3
2018-Apr-22 17:03N 35°58' W 005°37'112.5
2018-Apr-22 17:00N 35°58' W 005°37'612.3
2018-Apr-22 16:30N 35°60' W 005°29'611.4
2018-Apr-22 16:00N 36°03' W 005°24'5 8.9
2018-Apr-22 15:27N 36°08' W 005°25'0 0.0
2018-Apr-22 14:06N 36°08' W 005°25'0 0.0
2018-Apr-22 13:36N 36°08' W 005°25'0 0.0
2018-Apr-22 13:30N 36°08' W 005°25'0 0.0
2018-Apr-22 12:54N 36°08' W 005°25'0 0.0
2018-Apr-22 12:30N 36°08' W 005°25'0 0.0
2018-Apr-22 12:00N 36°08' W 005°25'0 0.0
2018-Apr-22 11:27N 36°08' W 005°25'0 0.0
2018-Apr-22 10:54N 36°08' W 005°25'0 0.0
2018-Apr-22 10:15N 36°08' W 005°25'0 0.0
2018-Apr-22 09:48N 36°08' W 005°25'0 0.0
2018-Apr-22 09:30N 36°08' W 005°25'0 0.0
2018-Apr-22 08:15N 36°08' W 005°25'0 0.0
2018-Apr-22 08:00N 36°08' W 005°25'0 0.0
2018-Apr-22 07:30N 36°08' W 005°25'0 0.0
2018-Apr-22 06:57N 36°08' W 005°25'0 0.0
2018-Apr-22 06:30N 36°08' W 005°25'0 0.0
2018-Apr-22 06:00N 36°08' W 005°25'0 0.0
2018-Apr-22 05:30N 36°08' W 005°25'0 0.0
2018-Apr-22 05:00N 36°08' W 005°25'0 0.0
2018-Apr-22 04:27N 36°08' W 005°25'0 0.0
2018-Apr-22 04:00N 36°08' W 005°25'0 0.0
2018-Apr-22 03:30N 36°08' W 005°25'0 0.0
2018-Apr-22 03:00N 36°08' W 005°25'0 0.0
2018-Apr-22 02:30N 36°08' W 005°25'0 0.0
2018-Apr-22 02:00N 36°08' W 005°25'0 0.0
2018-Apr-22 01:30N 36°08' W 005°25'0 0.0
2018-Apr-22 01:00N 36°08' W 005°25'0 0.0
2018-Apr-22 00:30N 36°08' W 005°25'1 1.1
2018-Apr-22 00:00N 36°08' W 005°25'3 5.8
2018-Apr-21 23:30N 36°06' W 005°23'3 0.2
2018-Apr-21 07:42N 36°09' W 005°26'0 0.0
2018-Apr-21 04:03N 36°09' W 005°26'0 0.0
2018-Apr-21 04:00N 36°09' W 005°26'0 0.0
2018-Apr-21 03:30N 36°09' W 005°26'0 0.0
2018-Apr-21 02:39N 36°09' W 005°26'0 0.0
2018-Apr-21 02:30N 36°09' W 005°26'0 0.0
2018-Apr-21 02:00N 36°09' W 005°26'0 0.0
2018-Apr-20 05:53N 36°09' W 005°26'0 0.0
2018-Apr-20 05:29N 36°09' W 005°26'0 0.0
2018-Apr-20 04:59N 36°09' W 005°26'0 0.0
2018-Apr-20 04:29N 36°09' W 005°26'0 0.0
2018-Apr-18 06:34N 36°09' W 005°26'0 0.0
2018-Apr-18 06:28N 36°09' W 005°26'0 0.0
2018-Apr-18 05:58N 36°09' W 005°26'0 0.0
2018-Apr-18 05:28N 36°09' W 005°26'0 0.0
2018-Apr-18 02:58N 36°09' W 005°26'0 0.0
2018-Apr-18 01:04N 36°09' W 005°26'0 0.0
2018-Apr-18 00:58N 36°09' W 005°26'0 0.0
2018-Apr-18 00:16N 36°09' W 005°26'0 0.0
2018-Apr-17 23:40N 36°09' W 005°26'0 0.0
2018-Apr-15 22:58N 36°09' W 005°26'0 0.0
2018-Apr-15 21:17N 36°09' W 005°26'0 0.0
2018-Apr-15 19:11N 36°09' W 005°26'0 0.0
2018-Apr-15 18:57N 36°09' W 005°26'  
Track history (hours):
 
Tides and Currents Weather Stations Pressure Air Temp Water Temp Dewpoint Dewpoint Depression Visibility Wind Speed Wind Dir Waves Ship Positions

Neuburg

Last reported at 2018-Apr-25 18:26 UTC. Time now 2018-Apr-26 19:16 UTC.
Position N 41°15' W 008°49'.

Length 142 m; draft 6.9 m.

Type: Ship (hazmat cat A). MMSI: 212740000.

Date/timePositionNaut miles runAvg speedWind from/ knotsBaromVisibWave heightAir tempDewpointWater temp
2018-Apr-25 18:26N 41°15' W 008°49'3 6.6
2018-Apr-25 17:59N 41°12' W 008°47'3 7.1
2018-Apr-25 17:30N 41°10' W 008°43'2 3.8
2018-Apr-25 16:59N 41°12' W 008°41'0 0.0
2018-Apr-25 16:18N 41°12' W 008°41'0 0.0
2018-Apr-25 15:48N 41°12' W 008°41'0 0.0
2018-Apr-25 15:18N 41°12' W 008°41'0 0.0
2018-Apr-25 14:57N 41°12' W 008°41'0 0.0
2018-Apr-25 13:39N 41°12' W 008°41'0 0.0
2018-Apr-25 13:30N 41°12' W 008°41'0 0.0
2018-Apr-25 12:54N 41°12' W 008°41'0 0.0
2018-Apr-25 11:21N 41°12' W 008°41'0 0.0
2018-Apr-25 10:57N 41°12' W 008°41'0 0.0
2018-Apr-25 10:30N 41°12' W 008°41'0 0.0
2018-Apr-25 09:36N 41°12' W 008°41'0 0.0
2018-Apr-25 09:24N 41°12' W 008°41'0 0.0
2018-Apr-25 08:48N 41°12' W 008°41'0 0.0
2018-Apr-25 08:30N 41°12' W 008°41'0 0.0
2018-Apr-25 07:54N 41°12' W 008°41'0 0.0
2018-Apr-25 07:30N 41°12' W 008°41'0 0.0
2018-Apr-25 07:00N 41°12' W 008°41'0 0.0
2018-Apr-25 05:47N 41°12' W 008°41'0 0.4
2018-Apr-25 05:30N 41°12' W 008°41'2 3.6
2018-Apr-25 05:00N 41°10' W 008°42'2 3.8
2018-Apr-25 04:30N 41°08' W 008°44'10611.1
2018-Apr-24 19:01N 39°33' W 009°44'212.0
2018-Apr-24 18:53N 39°32' W 009°45'411.7
2018-Apr-24 18:30N 39°27' W 009°47'611.5
2018-Apr-24 18:00N 39°22' W 009°48'611.8
2018-Apr-24 17:30N 39°16' W 009°48'611.8
2018-Apr-24 17:00N 39°10' W 009°49'611.7
2018-Apr-24 16:30N 39°04' W 009°49'611.8
2018-Apr-24 16:00N 38°58' W 009°50'611.7
2018-Apr-24 15:30N 38°52' W 009°50'612.1
2018-Apr-24 15:00N 38°46' W 009°51'612.3
2018-Apr-24 14:30N 38°40' W 009°50'510.9
2018-Apr-24 14:00N 38°37' W 009°44'612.9
2018-Apr-24 13:30N 38°37' W 009°36'712.9
2018-Apr-24 12:59N 38°36' W 009°28'612.9
2018-Apr-24 12:30N 38°39' W 009°20'713.1
2018-Apr-24 12:00N 38°41' W 009°12'5 9.7
2018-Apr-24 11:30N 38°43' W 009°07'0 0.0
2018-Apr-24 11:00N 38°43' W 009°07'0 0.0
2018-Apr-24 10:30N 38°43' W 009°07'0 0.0
2018-Apr-24 09:57N 38°43' W 009°07'0 0.0
2018-Apr-24 09:21N 38°43' W 009°07'0 0.0
2018-Apr-24 09:00N 38°43' W 009°07'0 0.0
2018-Apr-24 08:24N 38°43' W 009°07'0 0.0
2018-Apr-24 08:00N 38°43' W 009°07'0 0.0
2018-Apr-24 07:30N 38°43' W 009°07'0 0.0
2018-Apr-24 06:48N 38°43' W 009°07'0 0.0
2018-Apr-24 06:12N 38°43' W 009°07'0 0.0
2018-Apr-24 05:57N 38°43' W 009°07'0 0.0
2018-Apr-24 05:30N 38°43' W 009°07'0 0.0
2018-Apr-24 04:54N 38°43' W 009°07'0 0.0
2018-Apr-24 04:30N 38°43' W 009°07'0 0.0
2018-Apr-24 04:00N 38°43' W 009°07'0 0.0
2018-Apr-24 03:18N 38°43' W 009°07'0 0.0
2018-Apr-24 03:00N 38°43' W 009°07'0 0.0
2018-Apr-24 02:30N 38°43' W 009°07'0 0.0
2018-Apr-24 01:57N 38°43' W 009°07'0 0.0
2018-Apr-24 01:21N 38°43' W 009°07'0 0.0
2018-Apr-24 01:00N 38°43' W 009°07'0 0.0
2018-Apr-24 00:24N 38°43' W 009°07'0 0.0
2018-Apr-23 23:27N 38°43' W 009°07'0 0.0
2018-Apr-23 22:30N 38°43' W 009°07'0 0.0
2018-Apr-23 21:18N 38°43' W 009°07'0 0.0
2018-Apr-23 20:45N 38°43' W 009°07'0 0.0
2018-Apr-23 20:30N 38°43' W 009°07'0 0.0
2018-Apr-23 19:57N 38°43' W 009°07'0 0.0
2018-Apr-23 19:30N 38°43' W 009°07'0 0.0
2018-Apr-23 18:48N 38°43' W 009°07'0 0.0
2018-Apr-23 18:29N 38°43' W 009°07'0 0.0
2018-Apr-23 17:59N 38°43' W 009°07'0 0.0
2018-Apr-23 17:17N 38°43' W 009°07'0 0.0
2018-Apr-23 16:56N 38°43' W 009°07'0 0.0
2018-Apr-23 15:59N 38°43' W 009°07'0 0.0
2018-Apr-23 15:29N 38°43' W 009°07'2 4.5
2018-Apr-23 15:00N 38°42' W 009°09'612.0
2018-Apr-23 14:30N 38°41' W 009°16'612.3
2018-Apr-23 14:00N 38°37' W 009°23'612.7
2018-Apr-23 13:30N 38°31' W 009°23'713.4
2018-Apr-23 13:00N 38°24' W 009°23'713.1
2018-Apr-23 12:30N 38°18' W 009°23'613.0
2018-Apr-23 12:00N 38°11' W 009°23'712.9
2018-Apr-23 11:30N 38°05' W 009°23'613.0
2018-Apr-23 11:00N 37°58' W 009°23'713.3
2018-Apr-23 10:30N 37°52' W 009°23'713.4
2018-Apr-23 10:00N 37°45' W 009°23'813.6
2018-Apr-23 09:24N 37°37' W 009°23'513.5
2018-Apr-23 09:00N 37°31' W 009°23'813.5
2018-Apr-23 08:23N 37°23' W 009°22'513.9
2018-Apr-23 08:00N 37°18' W 009°22'713.5
2018-Apr-23 07:30N 37°11' W 009°22'1613.6
2018-Apr-23 06:21N 36°55' W 009°20'513.8
2018-Apr-23 06:00N 36°51' W 009°17'714.2
2018-Apr-23 05:30N 36°46' W 009°11'713.9
2018-Apr-23 05:00N 36°44' W 009°03'714.1
2018-Apr-23 04:30N 36°42' W 008°54'814.6
2018-Apr-23 03:59N 36°39' W 008°45'714.8
2018-Apr-23 03:28N 36°37' W 008°36'14914.3
2018-Apr-22 17:03N 35°58' W 005°37'112.5
2018-Apr-22 17:00N 35°58' W 005°37'612.3
2018-Apr-22 16:30N 35°60' W 005°29'611.4
2018-Apr-22 16:00N 36°03' W 005°24'5 8.9
2018-Apr-22 15:27N 36°08' W 005°25'0 0.0
2018-Apr-22 14:06N 36°08' W 005°25'0 0.0
2018-Apr-22 13:36N 36°08' W 005°25'0 0.0
2018-Apr-22 13:30N 36°08' W 005°25'0 0.0
2018-Apr-22 12:54N 36°08' W 005°25'0 0.0
2018-Apr-22 12:30N 36°08' W 005°25'0 0.0
2018-Apr-22 12:00N 36°08' W 005°25'0 0.0
2018-Apr-22 11:27N 36°08' W 005°25'0 0.0
2018-Apr-22 10:54N 36°08' W 005°25'0 0.0
2018-Apr-22 10:15N 36°08' W 005°25'0 0.0
2018-Apr-22 09:48N 36°08' W 005°25'0 0.0
2018-Apr-22 09:30N 36°08' W 005°25'0 0.0
2018-Apr-22 08:15N 36°08' W 005°25'0 0.0
2018-Apr-22 08:00N 36°08' W 005°25'0 0.0
2018-Apr-22 07:30N 36°08' W 005°25'0 0.0
2018-Apr-22 06:57N 36°08' W 005°25'0 0.0
2018-Apr-22 06:30N 36°08' W 005°25'0 0.0
2018-Apr-22 06:00N 36°08' W 005°25'0 0.0
2018-Apr-22 05:30N 36°08' W 005°25'0 0.0
2018-Apr-22 05:00N 36°08' W 005°25'0 0.0
2018-Apr-22 04:27N 36°08' W 005°25'0 0.0
2018-Apr-22 04:00N 36°08' W 005°25'0 0.0
2018-Apr-22 03:30N 36°08' W 005°25'0 0.0
2018-Apr-22 03:00N 36°08' W 005°25'0 0.0
2018-Apr-22 02:30N 36°08' W 005°25'0 0.0
2018-Apr-22 02:00N 36°08' W 005°25'0 0.0
2018-Apr-22 01:30N 36°08' W 005°25'0 0.0
2018-Apr-22 01:00N 36°08' W 005°25'0 0.0
2018-Apr-22 00:30N 36°08' W 005°25'1 1.1
2018-Apr-22 00:00N 36°08' W 005°25'3 5.8
2018-Apr-21 23:30N 36°06' W 005°23'3 0.2
2018-Apr-21 07:42N 36°09' W 005°26'0 0.0
2018-Apr-21 04:03N 36°09' W 005°26'0 0.0
2018-Apr-21 04:00N 36°09' W 005°26'0 0.0
2018-Apr-21 03:30N 36°09' W 005°26'0 0.0
2018-Apr-21 02:39N 36°09' W 005°26'0 0.0
2018-Apr-21 02:30N 36°09' W 005°26'0 0.0
2018-Apr-21 02:00N 36°09' W 005°26'0 0.0
2018-Apr-20 05:53N 36°09' W 005°26'0 0.0
2018-Apr-20 05:29N 36°09' W 005°26'0 0.0
2018-Apr-20 04:59N 36°09' W 005°26'0 0.0
2018-Apr-20 04:29N 36°09' W 005°26'0 0.0
2018-Apr-18 06:34N 36°09' W 005°26'0 0.0
2018-Apr-18 06:28N 36°09' W 005°26'0 0.0
2018-Apr-18 05:58N 36°09' W 005°26'0 0.0
2018-Apr-18 05:28N 36°09' W 005°26'0 0.0
2018-Apr-18 02:58N 36°09' W 005°26'0 0.0
2018-Apr-18 01:04N 36°09' W 005°26'0 0.0
2018-Apr-18 00:58N 36°09' W 005°26'0 0.0
2018-Apr-18 00:16N 36°09' W 005°26'0 0.0
2018-Apr-17 23:40N 36°09' W 005°26'0 0.0
2018-Apr-15 22:58N 36°09' W 005°26'0 0.0
2018-Apr-15 21:17N 36°09' W 005°26'0 0.0
2018-Apr-15 19:11N 36°09' W 005°26'0 0.0
2018-Apr-15 18:57N 36°09' W 005°26'  

Dump ship's entire track history